Alva, Florida
Current Conditions -  °F | °C
As of 7:53 PM on Sunday 21 Dec 2014 (Local Time) from KRSW Reporting Station
Light Rain Light Rain  
Wind Chill: 23°   Ceiling: 11000
Heat Index: 23°   Visibility: 10mi
Dew Point: 19°   Wind: 6mph
Humidity: 79%   Direction: 180°S
Pressure: 30.03"   Gusts: NA
Location:  26.72°N, 81.61°W
Report Text: KRSW 220053Z 18005KT 10SM -RA FEW034 BKN110 23/19 A3003 RMK AO2 RAB43 SLP166 P0000 T02280189
Loading
Personal Weather Stations






























Interactive Weather Map New forecast layout! Learn more

10-Day Weather Forecast

Advertisements
Track Severe Weather on mobile